createdAt,value
2019-03-11T00:00:32.110Z,5.10
2019-03-11T00:03:01.444Z,5.20
2019-03-11T00:05:31.367Z,5.20
2019-03-11T00:08:00.530Z,5.20
2019-03-11T00:10:29.701Z,5.10
2019-03-11T00:12:59.102Z,5.10
2019-03-11T00:15:28.394Z,5.10
2019-03-11T00:17:57.918Z,5.10
2019-03-11T00:20:27.096Z,5.00
2019-03-11T00:22:56.257Z,5.00
2019-03-11T00:25:25.440Z,5.00
2019-03-11T00:27:54.605Z,5.00
2019-03-11T00:30:23.786Z,5.10
2019-03-11T00:32:53.210Z,5.10
2019-03-11T00:35:22.389Z,5.10
2019-03-11T00:37:52.620Z,5.20
2019-03-11T00:40:21.877Z,5.20
2019-03-11T00:42:51.042Z,5.20
2019-03-11T00:45:20.220Z,5.20
2019-03-11T00:47:49.381Z,5.30
2019-03-11T00:50:18.560Z,5.30
2019-03-11T00:52:47.812Z,5.40
2019-03-11T00:55:17.337Z,5.40
2019-03-11T00:57:46.512Z,5.40
2019-03-11T01:00:24.703Z,5.50
2019-03-11T01:02:53.870Z,5.50
2019-03-11T01:05:23.029Z,5.60
2019-03-11T01:07:52.213Z,5.70
2019-03-11T01:10:21.644Z,5.80
2019-03-11T01:12:50.839Z,5.80
2019-03-11T01:15:19.992Z,5.90
2019-03-11T01:17:49.170Z,5.90
2019-03-11T01:20:18.357Z,6.00
2019-03-11T01:22:47.848Z,6.00
2019-03-11T01:25:17.023Z,6.00
2019-03-11T01:27:46.217Z,6.00
2019-03-11T01:30:16.644Z,6.00
2019-03-11T01:32:45.801Z,6.00
2019-03-11T01:35:15.106Z,6.00
2019-03-11T01:37:44.319Z,6.00
2019-03-11T01:40:17.792Z,6.00
2019-03-11T01:42:46.989Z,6.00
2019-03-11T01:45:17.549Z,6.00
2019-03-11T01:47:47.116Z,6.00
2019-03-11T01:50:16.606Z,6.00
2019-03-11T01:52:45.893Z,5.90
2019-03-11T01:55:15.100Z,5.90
2019-03-11T01:57:44.337Z,5.90
2019-03-11T02:00:17.990Z,5.80
2019-03-11T02:02:47.207Z,5.70
2019-03-11T02:05:16.420Z,5.70
2019-03-11T02:07:45.631Z,5.60
2019-03-11T02:10:18.928Z,5.60
2019-03-11T02:12:48.147Z,5.60
2019-03-11T02:15:18.510Z,5.60
2019-03-11T02:17:47.720Z,5.60
2019-03-11T02:20:17.983Z,5.50
2019-03-11T02:22:47.186Z,5.60
2019-03-11T02:25:16.434Z,5.60
2019-03-11T02:27:45.643Z,5.70
2019-03-11T02:30:16.198Z,5.70
2019-03-11T02:32:45.405Z,5.80
2019-03-11T02:35:16.185Z,5.80
2019-03-11T02:37:45.417Z,5.80
2019-03-11T02:40:14.964Z,5.80
2019-03-11T02:42:44.293Z,5.80
2019-03-11T02:45:13.496Z,5.70
2019-03-11T02:47:42.704Z,5.70
2019-03-11T02:50:12.194Z,5.70
2019-03-11T02:52:41.402Z,5.70
2019-03-11T02:55:10.714Z,5.70
2019-03-11T02:57:39.998Z,5.80
2019-03-11T03:00:18.762Z,5.80
2019-03-11T03:03:05.078Z,5.80
2019-03-11T03:05:35.934Z,5.90
2019-03-11T03:08:05.227Z,5.90
2019-03-11T03:10:34.459Z,6.00
2019-03-11T03:13:03.705Z,6.00
2019-03-11T03:15:32.961Z,6.00
2019-03-11T03:18:02.201Z,6.00
2019-03-11T03:20:31.400Z,6.00
2019-03-11T03:23:00.646Z,6.00
2019-03-11T03:25:34.341Z,6.00
2019-03-11T03:28:01.467Z,6.00
2019-03-11T03:30:31.223Z,6.10
2019-03-11T03:33:00.456Z,6.10
2019-03-11T03:35:29.687Z,6.10
2019-03-11T03:37:58.881Z,6.10
2019-03-11T03:40:29.176Z,6.10
2019-03-11T03:42:58.521Z,6.10
2019-03-11T03:45:35.965Z,6.00
2019-03-11T03:48:05.265Z,6.00
2019-03-11T03:50:36.613Z,5.90
2019-03-11T03:53:06.076Z,5.90
2019-03-11T03:55:35.355Z,5.90
2019-03-11T03:58:04.654Z,5.90
2019-03-11T04:00:33.882Z,5.90
2019-03-11T04:03:03.096Z,6.00
2019-03-11T04:05:32.301Z,6.00
2019-03-11T04:08:01.530Z,6.00
2019-03-11T04:10:32.514Z,6.10
2019-03-11T04:13:01.657Z,6.10
2019-03-11T04:15:30.880Z,6.10
2019-03-11T04:18:00.124Z,6.00
2019-03-11T04:20:29.400Z,6.00
2019-03-11T04:22:59.177Z,6.00
2019-03-11T04:25:29.718Z,5.90
2019-03-11T04:27:59.305Z,5.90
2019-03-11T04:30:29.028Z,5.90
2019-03-11T04:32:58.610Z,5.80
2019-03-11T04:35:28.128Z,5.80
2019-03-11T04:37:57.420Z,5.70
2019-03-11T04:40:26.923Z,5.70
2019-03-11T04:42:56.152Z,5.60
2019-03-11T04:45:25.641Z,5.60
2019-03-11T04:47:54.857Z,5.50
2019-03-11T04:50:24.057Z,5.50
2019-03-11T04:52:53.280Z,5.50
2019-03-11T04:55:22.483Z,5.40
2019-03-11T04:57:58.509Z,5.40
2019-03-11T05:00:33.636Z,5.30
2019-03-11T05:03:02.856Z,5.30
2019-03-11T05:05:32.087Z,5.30
2019-03-11T05:08:01.289Z,5.20
2019-03-11T05:10:31.583Z,4.80
2019-03-11T05:13:00.789Z,4.30
2019-03-11T05:15:30.008Z,3.80
2019-03-11T05:17:59.237Z,3.60
2019-03-11T05:20:28.446Z,3.50
2019-03-11T05:22:57.832Z,3.40
2019-03-11T05:25:27.033Z,3.40
2019-03-11T05:27:57.323Z,3.40
2019-03-11T05:30:26.522Z,3.50
2019-03-11T05:32:55.752Z,3.50
2019-03-11T05:35:24.982Z,3.60
2019-03-11T05:37:54.219Z,3.70
2019-03-11T05:40:23.418Z,3.70
2019-03-11T05:42:53.592Z,3.80
2019-03-11T05:45:22.815Z,3.80
2019-03-11T05:47:52.032Z,3.80
2019-03-11T05:50:21.233Z,3.70
2019-03-11T05:52:50.468Z,3.60
2019-03-11T05:55:19.664Z,3.50
2019-03-11T05:57:48.890Z,3.50
2019-03-11T06:00:23.147Z,3.50
2019-03-11T06:02:52.394Z,3.40
2019-03-11T06:05:21.643Z,3.40
2019-03-11T06:07:50.859Z,3.40
2019-03-11T06:10:20.087Z,3.40
2019-03-11T06:12:49.296Z,3.40
2019-03-11T06:15:18.591Z,3.30
2019-03-11T06:17:48.320Z,3.30
2019-03-11T06:20:35.910Z,3.30
2019-03-11T06:23:06.744Z,3.30
2019-03-11T06:25:35.968Z,3.30
2019-03-11T06:28:05.203Z,3.30
2019-03-11T06:30:34.647Z,3.30
2019-03-11T06:33:03.916Z,3.30
2019-03-11T06:35:33.134Z,3.30
2019-03-11T06:38:02.361Z,3.30
2019-03-11T06:40:31.560Z,3.30
2019-03-11T06:43:00.784Z,3.40
2019-03-11T06:45:29.998Z,3.40
2019-03-11T06:47:59.207Z,3.50
2019-03-11T06:50:28.406Z,3.60
2019-03-11T06:52:57.639Z,3.60
2019-03-11T06:55:26.866Z,3.70
2019-03-11T06:57:56.069Z,3.70
2019-03-11T07:00:26.640Z,3.80
2019-03-11T07:02:55.829Z,3.80
2019-03-11T07:05:25.054Z,3.90
2019-03-11T07:07:54.283Z,4.00
2019-03-11T07:10:23.504Z,4.10
2019-03-11T07:12:52.777Z,4.20
2019-03-11T07:15:22.068Z,4.30
2019-03-11T07:17:51.547Z,4.50
2019-03-11T07:20:21.060Z,4.70
2019-03-11T07:22:50.293Z,4.90
2019-03-11T07:25:19.490Z,4.90
2019-03-11T07:27:48.784Z,5.10
2019-03-11T07:30:19.891Z,5.20
2019-03-11T07:32:49.400Z,5.30
2019-03-11T07:35:18.611Z,5.30
2019-03-11T07:37:47.839Z,5.30
2019-03-11T07:40:29.363Z,5.30
2019-03-11T07:42:49.007Z,5.20
2019-03-11T07:45:18.207Z,5.30
2019-03-11T07:47:47.428Z,5.30
2019-03-11T07:50:17.196Z,5.30
2019-03-11T07:52:46.468Z,5.30
2019-03-11T07:55:15.674Z,5.20
2019-03-11T07:57:44.895Z,5.20
2019-03-11T08:00:16.603Z,5.20
2019-03-11T08:02:46.055Z,5.10
2019-03-11T08:05:15.420Z,5.10
2019-03-11T08:07:44.954Z,5.20
2019-03-11T08:10:25.629Z,5.20
2019-03-11T08:12:54.837Z,5.20
2019-03-11T08:15:24.068Z,5.30
2019-03-11T08:17:54.222Z,5.40
2019-03-11T08:20:23.578Z,5.40
2019-03-11T08:22:53.899Z,5.50
2019-03-11T08:25:23.179Z,5.50
2019-03-11T08:27:52.387Z,5.50
2019-03-11T08:30:22.350Z,5.60
2019-03-11T08:32:51.654Z,5.70
2019-03-11T08:35:21.011Z,5.80
2019-03-11T08:37:50.215Z,5.90
2019-03-11T08:40:20.582Z,5.90
2019-03-11T08:42:49.799Z,5.80
2019-03-11T08:45:19.816Z,5.80
2019-03-11T08:47:49.056Z,5.70
2019-03-11T08:50:18.340Z,5.70
2019-03-11T08:52:47.575Z,5.80
2019-03-11T08:55:16.849Z,5.80
2019-03-11T08:57:46.101Z,5.80
2019-03-11T09:00:24.860Z,5.80
2019-03-11T09:02:54.086Z,5.80
2019-03-11T09:05:23.284Z,5.80
2019-03-11T09:07:52.516Z,5.90
2019-03-11T09:10:21.743Z,5.80
2019-03-11T09:12:50.940Z,5.70
2019-03-11T09:15:23.172Z,5.30
2019-03-11T09:17:52.364Z,4.60
2019-03-11T09:20:21.592Z,4.10
2019-03-11T09:22:50.826Z,3.80
2019-03-11T09:25:25.064Z,3.60
2019-03-11T09:27:54.358Z,3.50
2019-03-11T09:30:24.096Z,3.40
2019-03-11T09:32:53.326Z,3.40
2019-03-11T09:35:22.534Z,3.40
2019-03-11T09:37:51.760Z,3.50
2019-03-11T09:40:21.735Z,3.70
2019-03-11T09:42:50.936Z,3.90
2019-03-11T09:45:20.295Z,4.10
2019-03-11T09:47:49.493Z,4.30
2019-03-11T09:50:18.960Z,4.40
2019-03-11T09:52:48.171Z,4.60
2019-03-11T09:55:21.624Z,4.70
2019-03-11T09:57:50.826Z,4.90
2019-03-11T10:00:33.333Z,5.00
2019-03-11T10:03:02.609Z,5.10
2019-03-11T10:05:31.851Z,5.30
2019-03-11T10:08:01.240Z,5.60
2019-03-11T10:10:30.698Z,5.90
2019-03-11T10:13:00.014Z,6.00
2019-03-11T10:15:29.213Z,6.00
2019-03-11T10:17:58.437Z,5.90
2019-03-11T10:20:27.667Z,5.80
2019-03-11T10:22:56.860Z,5.80
2019-03-11T10:25:26.089Z,5.70
2019-03-11T10:27:55.316Z,5.70
2019-03-11T10:30:25.080Z,5.80
2019-03-11T10:32:54.355Z,5.80
2019-03-11T10:35:32.571Z,5.80
2019-03-11T10:37:54.481Z,5.80
2019-03-11T10:40:27.137Z,5.70
2019-03-11T10:42:56.338Z,5.60
2019-03-11T10:45:31.704Z,5.40
2019-03-11T10:47:56.624Z,5.40
2019-03-11T10:50:25.855Z,5.40
2019-03-11T10:52:55.056Z,5.50
2019-03-11T10:55:25.120Z,5.50
2019-03-11T10:57:54.398Z,5.50
2019-03-11T11:00:29.219Z,5.70
2019-03-11T11:02:58.492Z,5.90
2019-03-11T11:05:27.788Z,6.10
2019-03-11T11:07:57.082Z,6.20
2019-03-11T11:10:26.285Z,6.20
2019-03-11T11:12:55.504Z,6.30
2019-03-11T11:15:25.341Z,6.20
2019-03-11T11:17:54.910Z,6.20
2019-03-11T11:20:24.685Z,6.10
2019-03-11T11:22:54.931Z,6.10
2019-03-11T11:25:28.382Z,6.30
2019-03-11T11:27:57.707Z,6.40
2019-03-11T11:30:28.435Z,6.40
2019-03-11T11:32:57.800Z,6.40
2019-03-11T11:35:27.097Z,6.60
2019-03-11T11:37:57.205Z,6.70
2019-03-11T11:40:28.542Z,6.70
2019-03-11T11:42:57.735Z,6.80
2019-03-11T11:45:30.241Z,6.90
2019-03-11T11:47:59.437Z,6.70
2019-03-11T11:50:28.738Z,6.70
2019-03-11T11:52:58.077Z,6.70
2019-03-11T11:55:27.464Z,6.70
2019-03-11T11:57:56.924Z,6.70
2019-03-11T12:00:35.777Z,6.70
2019-03-11T12:03:05.004Z,6.60
2019-03-11T12:05:34.538Z,6.60
2019-03-11T12:08:03.741Z,6.60
2019-03-11T12:10:33.804Z,6.60
2019-03-11T12:13:03.031Z,6.70
2019-03-11T12:15:32.405Z,6.80
2019-03-11T12:18:01.637Z,6.80
2019-03-11T12:20:32.081Z,6.90
2019-03-11T12:23:01.301Z,6.90
2019-03-11T12:25:30.496Z,6.90
2019-03-11T12:27:59.712Z,6.80
2019-03-11T12:30:34.361Z,6.90
2019-03-11T12:33:04.605Z,6.90
2019-03-11T12:35:33.880Z,6.90
2019-03-11T12:38:03.180Z,7.00
2019-03-11T12:40:32.390Z,7.10
2019-03-11T12:43:01.608Z,7.20
2019-03-11T12:45:30.812Z,7.10
2019-03-11T12:48:00.040Z,7.20
2019-03-11T12:50:32.952Z,7.20
2019-03-11T12:53:02.181Z,7.20
2019-03-11T12:55:31.408Z,7.30
2019-03-11T12:58:00.642Z,7.50
2019-03-11T13:00:29.869Z,7.30
2019-03-11T13:02:59.077Z,7.30
2019-03-11T13:05:28.312Z,7.30
2019-03-11T13:07:57.506Z,7.20
2019-03-11T13:10:28.273Z,7.10
2019-03-11T13:12:57.513Z,7.10
2019-03-11T13:15:26.737Z,7.20
2019-03-11T13:17:56.017Z,7.20
2019-03-11T13:20:33.550Z,7.00
2019-03-11T13:23:02.761Z,6.90
2019-03-11T13:25:32.052Z,6.80
2019-03-11T13:28:01.256Z,6.80
2019-03-11T13:30:31.652Z,6.90
2019-03-11T13:33:00.878Z,7.00
2019-03-11T13:35:31.147Z,7.10
2019-03-11T13:38:00.360Z,7.20
2019-03-11T13:40:29.928Z,7.30
2019-03-11T13:42:59.424Z,7.30
2019-03-11T13:45:28.648Z,7.50
2019-03-11T13:47:57.855Z,7.60
2019-03-11T13:50:27.077Z,7.50
2019-03-11T13:52:56.301Z,7.50
2019-03-11T13:55:25.528Z,7.60
2019-03-11T13:57:54.736Z,7.60
2019-03-11T14:00:23.977Z,7.70
2019-03-11T14:02:53.185Z,7.40
2019-03-11T14:05:22.410Z,7.30
2019-03-11T14:07:51.620Z,7.30
2019-03-11T14:10:20.860Z,7.40
2019-03-11T14:12:50.153Z,7.50
2019-03-11T14:15:20.323Z,7.40
2019-03-11T14:17:50.595Z,7.50
2019-03-11T14:20:19.896Z,7.50
2019-03-11T14:22:49.092Z,7.50
2019-03-11T14:25:18.698Z,7.70
2019-03-11T14:27:47.899Z,7.70
2019-03-11T14:30:21.629Z,7.70
2019-03-11T14:32:50.926Z,7.70
2019-03-11T14:35:20.127Z,7.70
2019-03-11T14:37:49.353Z,7.80
2019-03-11T14:40:19.798Z,7.80
2019-03-11T14:42:49.024Z,7.80
2019-03-11T14:45:19.061Z,7.80
2019-03-11T14:47:48.363Z,8.00
2019-03-11T14:50:18.223Z,8.10
2019-03-11T14:52:47.517Z,8.10
2019-03-11T14:55:16.864Z,8.10
2019-03-11T14:57:46.095Z,8.20
2019-03-11T15:00:21.885Z,8.30
2019-03-11T15:02:51.280Z,8.30
2019-03-11T15:05:21.146Z,8.20
2019-03-11T15:07:50.348Z,8.10
2019-03-11T15:10:19.888Z,8.00
2019-03-11T15:12:49.385Z,8.10
2019-03-11T15:15:20.924Z,8.20
2019-03-11T15:17:50.128Z,8.20
2019-03-11T15:20:19.418Z,8.10
2019-03-11T15:22:48.702Z,8.10
2019-03-11T15:25:18.229Z,8.00
2019-03-11T15:27:48.941Z,7.90
2019-03-11T15:30:23.040Z,7.80
2019-03-11T15:32:52.450Z,7.80
2019-03-11T15:35:21.652Z,7.80
2019-03-11T15:37:50.879Z,7.80
2019-03-11T15:40:20.082Z,7.70
2019-03-11T15:42:49.374Z,7.70
2019-03-11T15:45:19.511Z,7.70
2019-03-11T15:47:48.742Z,7.80
2019-03-11T15:50:34.936Z,7.70
2019-03-11T15:53:04.237Z,7.80
2019-03-11T15:55:33.688Z,7.80
2019-03-11T15:58:02.914Z,7.80
2019-03-11T16:00:32.402Z,7.80
2019-03-11T16:03:01.620Z,7.70
2019-03-11T16:05:30.845Z,7.70
2019-03-11T16:08:00.069Z,7.70
2019-03-11T16:10:29.443Z,7.70
2019-03-11T16:12:59.556Z,7.70
2019-03-11T16:15:28.861Z,7.70
2019-03-11T16:17:59.172Z,7.70
2019-03-11T16:20:28.464Z,7.60
2019-03-11T16:22:57.700Z,7.60
2019-03-11T16:25:26.908Z,7.60
2019-03-11T16:27:56.131Z,7.60
2019-03-11T16:30:26.596Z,7.80
2019-03-11T16:33:00.032Z,8.10
2019-03-11T16:35:28.346Z,8.30
2019-03-11T16:37:57.545Z,8.50
2019-03-11T16:40:26.776Z,8.50
2019-03-11T16:42:55.969Z,8.40
2019-03-11T16:45:25.261Z,8.30
2019-03-11T16:47:54.457Z,8.20
2019-03-11T16:50:24.719Z,8.20
2019-03-11T16:52:53.953Z,8.10
2019-03-11T16:55:29.013Z,8.00
2019-03-11T16:57:58.240Z,7.80
2019-03-11T17:00:29.076Z,7.50
2019-03-11T17:02:58.307Z,7.30
2019-03-11T17:05:27.526Z,7.30
2019-03-11T17:07:56.732Z,7.20
2019-03-11T17:10:26.463Z,7.10
2019-03-11T17:12:55.660Z,7.00
2019-03-11T17:15:24.890Z,7.00
2019-03-11T17:17:54.091Z,7.00
2019-03-11T17:20:23.325Z,7.00
2019-03-11T17:22:52.531Z,6.90
2019-03-11T17:25:21.767Z,6.90
2019-03-11T17:27:50.964Z,6.90
2019-03-11T17:30:27.515Z,6.90
2019-03-11T17:32:56.742Z,6.80
2019-03-11T17:35:25.961Z,6.80
2019-03-11T17:37:55.255Z,6.80
2019-03-11T17:40:25.306Z,6.70
2019-03-11T17:42:54.753Z,6.70
2019-03-11T17:45:24.043Z,6.60
2019-03-11T17:47:54.593Z,6.60
2019-03-11T17:50:24.429Z,6.60
2019-03-11T17:52:54.033Z,6.60
2019-03-11T17:55:23.272Z,6.50
2019-03-11T17:57:52.934Z,6.50
2019-03-11T18:00:54.572Z,6.50
2019-03-11T18:03:15.043Z,6.50
2019-03-11T18:05:44.317Z,6.40
2019-03-11T18:08:13.629Z,6.40
2019-03-11T18:10:42.834Z,6.40
2019-03-11T18:13:12.053Z,6.40
2019-03-11T18:15:41.265Z,6.40
2019-03-11T18:18:11.509Z,6.40
2019-03-11T18:20:40.722Z,6.30
2019-03-11T18:23:09.945Z,6.30
2019-03-11T18:25:39.176Z,6.30
2019-03-11T18:28:08.555Z,6.30
2019-03-11T18:30:37.887Z,6.30
2019-03-11T18:33:07.337Z,6.30
2019-03-11T18:35:36.617Z,6.30
2019-03-11T18:38:05.918Z,6.30
2019-03-11T18:40:35.556Z,6.30
2019-03-11T18:43:04.833Z,6.30
2019-03-11T18:45:34.159Z,6.20
2019-03-11T18:48:03.504Z,6.20
2019-03-11T18:50:32.813Z,6.20
2019-03-11T18:53:02.012Z,6.20
2019-03-11T18:55:31.356Z,6.20
2019-03-11T18:58:00.661Z,6.10
2019-03-11T19:00:30.094Z,6.10
2019-03-11T19:02:59.369Z,6.10
2019-03-11T19:05:28.732Z,6.10
2019-03-11T19:07:58.383Z,6.10
2019-03-11T19:10:27.678Z,6.10
2019-03-11T19:12:56.923Z,6.10
2019-03-11T19:15:26.642Z,6.10
2019-03-11T19:17:56.916Z,6.10
2019-03-11T19:20:27.292Z,6.10
2019-03-11T19:22:56.564Z,6.10
2019-03-11T19:25:25.881Z,6.00
2019-03-11T19:27:55.166Z,6.00
2019-03-11T19:30:28.591Z,6.00
2019-03-11T19:32:57.928Z,6.00
2019-03-11T19:35:27.462Z,6.00
2019-03-11T19:37:56.790Z,6.00
2019-03-11T19:40:27.176Z,6.00
2019-03-11T19:42:56.509Z,6.00
2019-03-11T19:45:26.862Z,6.00
2019-03-11T19:47:56.087Z,6.00
2019-03-11T19:50:25.487Z,6.00
2019-03-11T19:52:59.182Z,5.90
2019-03-11T19:55:25.711Z,5.90
2019-03-11T19:57:54.978Z,5.90
2019-03-11T20:00:25.006Z,5.90
2019-03-11T20:02:54.446Z,5.90
2019-03-11T20:05:31.542Z,5.90
2019-03-11T20:08:00.824Z,5.90
2019-03-11T20:10:30.151Z,5.90
2019-03-11T20:12:59.471Z,5.80
2019-03-11T20:15:28.827Z,5.80
2019-03-11T20:17:58.157Z,5.80
2019-03-11T20:20:27.539Z,5.80
2019-03-11T20:22:56.897Z,5.80
2019-03-11T20:25:37.036Z,5.80
2019-03-11T20:28:06.405Z,5.80
2019-03-11T20:30:35.909Z,5.80
2019-03-11T20:33:05.283Z,5.80
2019-03-11T20:35:34.572Z,5.80
2019-03-11T20:38:03.948Z,5.80
2019-03-11T20:40:33.225Z,5.80
2019-03-11T20:43:02.925Z,5.80
2019-03-11T20:45:32.524Z,5.80
2019-03-11T20:48:01.820Z,5.70
2019-03-11T20:50:41.523Z,5.70
2019-03-11T20:53:02.022Z,5.70
2019-03-11T20:55:33.992Z,5.70
2019-03-11T20:58:02.350Z,5.70
2019-03-11T21:00:31.823Z,5.60
2019-03-11T21:03:01.054Z,5.60
2019-03-11T21:05:48.299Z,5.60
2019-03-11T21:08:17.624Z,5.60
2019-03-11T21:10:46.930Z,5.60
2019-03-11T21:13:16.246Z,5.70
2019-03-11T21:15:46.603Z,5.60
2019-03-11T21:18:15.881Z,5.70
2019-03-11T21:20:45.220Z,5.70
2019-03-11T21:23:14.465Z,5.70
2019-03-11T21:25:44.165Z,5.70
2019-03-11T21:28:14.192Z,5.70
2019-03-11T21:30:43.538Z,5.70
2019-03-11T21:33:12.817Z,5.70
2019-03-11T21:35:42.129Z,5.60
2019-03-11T21:38:11.449Z,5.60
2019-03-11T21:40:40.701Z,5.60
2019-03-11T21:43:10.111Z,5.60
2019-03-11T21:45:39.462Z,5.60
2019-03-11T21:48:08.741Z,5.60
2019-03-11T21:50:38.319Z,5.60
2019-03-11T21:53:07.915Z,5.60
2019-03-11T21:55:37.229Z,5.60
2019-03-11T21:58:13.024Z,5.60
2019-03-11T22:00:37.467Z,5.50
2019-03-11T22:03:06.669Z,5.50
2019-03-11T22:05:35.907Z,5.50
2019-03-11T22:08:05.102Z,5.50
2019-03-11T22:10:34.640Z,5.50
2019-03-11T22:13:03.847Z,5.50
2019-03-11T22:15:33.056Z,5.40
2019-03-11T22:18:02.282Z,5.40
2019-03-11T22:20:31.511Z,5.40
2019-03-11T22:23:00.712Z,5.40
2019-03-11T22:25:30.236Z,5.40
2019-03-11T22:27:59.460Z,5.40
2019-03-11T22:30:29.050Z,5.40
2019-03-11T22:32:58.286Z,5.40
2019-03-11T22:35:29.059Z,5.40
2019-03-11T22:37:58.591Z,5.40
2019-03-11T22:40:27.788Z,5.30
2019-03-11T22:42:57.012Z,5.40
2019-03-11T22:45:26.249Z,5.40
2019-03-11T22:47:55.800Z,5.30
2019-03-11T22:50:25.306Z,5.40
2019-03-11T22:52:54.541Z,5.40
2019-03-11T22:55:23.724Z,5.40
2019-03-11T22:57:52.951Z,5.40
2019-03-11T23:01:00.559Z,5.40
2019-03-11T23:03:30.555Z,5.40
2019-03-11T23:05:59.784Z,5.40
2019-03-11T23:08:29.007Z,5.40
2019-03-11T23:10:58.213Z,5.40
2019-03-11T23:13:27.436Z,5.50
2019-03-11T23:15:56.660Z,5.60
2019-03-11T23:18:25.906Z,5.60
2019-03-11T23:20:55.103Z,5.70
2019-03-11T23:23:24.330Z,5.70
2019-03-11T23:25:53.525Z,5.70
2019-03-11T23:28:22.752Z,5.60
2019-03-11T23:30:51.961Z,5.60
2019-03-11T23:33:21.174Z,5.40
2019-03-11T23:35:50.369Z,5.30
2019-03-11T23:38:19.607Z,5.30
2019-03-11T23:40:48.814Z,5.20
2019-03-11T23:43:18.042Z,5.10
2019-03-11T23:45:47.243Z,5.10
2019-03-11T23:48:16.468Z,5.00
2019-03-11T23:50:45.668Z,5.00
2019-03-11T23:53:14.891Z,4.90
2019-03-11T23:55:44.115Z,4.90
2019-03-11T23:58:13.313Z,4.80
